createdAt,value
2023-02-06T00:00:07.860Z,24.80
2023-02-06T00:01:07.810Z,23.30
2023-02-06T00:02:07.829Z,24.10
2023-02-06T00:03:07.814Z,24.60
2023-02-06T00:04:07.835Z,25.30
2023-02-06T00:05:07.774Z,24.20
2023-02-06T00:06:07.743Z,22.70
2023-02-06T00:07:07.752Z,21.60
2023-02-06T00:08:07.837Z,21.40
2023-02-06T00:09:07.739Z,20.30
2023-02-06T00:10:07.693Z,21.40
2023-02-06T00:11:08.187Z,20.50
2023-02-06T00:12:07.682Z,20.20
2023-02-06T00:13:07.663Z,21.20
2023-02-06T00:14:07.669Z,19.80
2023-02-06T00:15:07.670Z,19.50
2023-02-06T00:16:07.686Z,19.80
2023-02-06T00:17:07.619Z,20.70
2023-02-06T00:18:07.644Z,19.90
2023-02-06T00:19:07.603Z,19.60
2023-02-06T00:20:07.860Z,19.60
2023-02-06T00:21:07.582Z,21.30
2023-02-06T00:22:07.566Z,21.20
2023-02-06T00:23:07.580Z,19.70
2023-02-06T00:24:07.595Z,20.40
2023-02-06T00:25:07.551Z,19.30
2023-02-06T00:26:07.530Z,20.70
2023-02-06T00:27:07.764Z,18.90
2023-02-06T00:28:07.572Z,18.80
2023-02-06T00:29:07.503Z,19.20
2023-02-06T00:30:07.528Z,19.50
2023-02-06T00:31:07.585Z,19.10
2023-02-06T00:32:07.474Z,17.80
2023-02-06T00:33:07.511Z,18.60
2023-02-06T00:34:07.472Z,18.50
2023-02-06T00:35:07.447Z,17.50
2023-02-06T00:36:08.289Z,17.20
2023-02-06T00:37:07.421Z,17.60
2023-02-06T00:38:07.419Z,17.50
2023-02-06T00:39:07.409Z,17.70
2023-02-06T00:40:07.370Z,16.60
2023-02-06T00:41:07.424Z,16.60
2023-02-06T00:42:07.365Z,16.90
2023-02-06T00:43:07.364Z,17.50
2023-02-06T00:44:07.350Z,16.60
2023-02-06T00:45:07.315Z,15.40
2023-02-06T00:46:07.379Z,15.90
2023-02-06T00:47:07.309Z,16.80
2023-02-06T00:48:07.302Z,16.70
2023-02-06T00:49:07.294Z,16.00
2023-02-06T00:50:07.284Z,16.40
2023-02-06T00:51:07.313Z,17.20
2023-02-06T00:52:07.284Z,16.60
2023-02-06T00:53:07.243Z,17.20
2023-02-06T00:54:07.223Z,16.60
2023-02-06T00:55:07.213Z,16.80
2023-02-06T00:56:07.253Z,17.30
2023-02-06T00:57:07.206Z,17.20
2023-02-06T00:58:07.191Z,16.90
2023-02-06T00:59:07.179Z,16.80
2023-02-06T01:00:07.223Z,17.30
2023-02-06T01:01:07.818Z,16.90
2023-02-06T01:02:07.165Z,17.10
2023-02-06T01:03:07.128Z,17.50
2023-02-06T01:04:07.117Z,17.70
2023-02-06T01:05:07.126Z,17.20
2023-02-06T01:06:07.100Z,17.40
2023-02-06T01:07:07.091Z,17.00
2023-02-06T01:08:07.085Z,17.50
2023-02-06T01:09:07.083Z,18.10
2023-02-06T01:10:07.049Z,18.00
2023-02-06T01:11:07.071Z,17.10
2023-02-06T01:12:07.022Z,17.20
2023-02-06T01:13:07.043Z,18.30
2023-02-06T01:14:07.009Z,18.00
2023-02-06T01:15:06.994Z,16.70
2023-02-06T01:16:07.019Z,16.80
2023-02-06T01:17:06.964Z,17.20
2023-02-06T01:18:07.039Z,17.60
2023-02-06T01:19:06.962Z,17.40
2023-02-06T01:20:06.925Z,17.30
2023-02-06T01:21:06.931Z,18.00
2023-02-06T01:22:06.913Z,19.20
2023-02-06T01:23:06.911Z,22.50
2023-02-06T01:24:06.919Z,21.50
2023-02-06T01:25:06.923Z,21.20
2023-02-06T01:26:06.887Z,22.90
2023-02-06T01:27:06.863Z,23.20
2023-02-06T01:28:06.882Z,22.80
2023-02-06T01:29:06.839Z,22.10
2023-02-06T01:30:06.817Z,24.30
2023-02-06T01:31:06.905Z,25.50
2023-02-06T01:32:06.802Z,23.50
2023-02-06T01:33:06.796Z,24.20
2023-02-06T01:34:06.783Z,24.10
2023-02-06T01:35:06.780Z,25.50
2023-02-06T01:36:06.757Z,24.00
2023-02-06T01:37:06.774Z,24.10
2023-02-06T01:38:06.726Z,24.00
2023-02-06T01:39:07.082Z,23.90
2023-02-06T01:40:06.717Z,24.90
2023-02-06T01:41:06.772Z,24.30
2023-02-06T01:42:06.717Z,23.20
2023-02-06T01:43:06.714Z,23.30
2023-02-06T01:44:06.749Z,25.10
2023-02-06T01:45:06.820Z,24.60
2023-02-06T01:46:06.920Z,23.00
2023-02-06T01:47:06.666Z,24.10
2023-02-06T01:48:06.654Z,25.20
2023-02-06T01:49:07.139Z,24.60
2023-02-06T01:50:07.225Z,23.90
2023-02-06T01:51:06.618Z,23.70
2023-02-06T01:52:06.621Z,24.70
2023-02-06T01:53:06.587Z,24.20
2023-02-06T01:54:06.576Z,23.80
2023-02-06T01:55:06.570Z,23.70
2023-02-06T01:56:06.540Z,23.00
2023-02-06T01:57:06.550Z,25.30
2023-02-06T01:58:07.078Z,23.60
2023-02-06T01:59:06.554Z,22.90
2023-02-06T02:00:06.495Z,22.00
2023-02-06T02:01:06.587Z,24.20
2023-02-06T02:02:06.508Z,24.10
2023-02-06T02:03:06.475Z,23.20
2023-02-06T02:04:06.483Z,23.30
2023-02-06T02:05:06.688Z,24.40
2023-02-06T02:06:06.434Z,24.00
2023-02-06T02:07:06.428Z,24.10
2023-02-06T02:08:06.455Z,24.60
2023-02-06T02:09:06.584Z,24.60
2023-02-06T02:10:06.408Z,24.10
2023-02-06T02:11:06.392Z,24.30
2023-02-06T02:12:06.381Z,23.70
2023-02-06T02:13:06.408Z,23.20
2023-02-06T02:14:06.336Z,25.00
2023-02-06T02:15:06.370Z,22.90
2023-02-06T02:16:06.356Z,24.10
2023-02-06T02:17:06.393Z,23.60
2023-02-06T02:18:06.348Z,25.10
2023-02-06T02:19:06.379Z,24.50
2023-02-06T02:20:06.388Z,23.40
2023-02-06T02:21:06.304Z,23.40
2023-02-06T02:22:06.269Z,23.90
2023-02-06T02:23:06.270Z,24.00
2023-02-06T02:24:06.269Z,23.50
2023-02-06T02:25:06.338Z,23.10
2023-02-06T02:26:06.248Z,24.60
2023-02-06T02:27:06.234Z,23.50
2023-02-06T02:28:06.281Z,22.10
2023-02-06T02:29:13.246Z,23.60
2023-02-06T02:30:06.193Z,24.90
2023-02-06T02:31:06.199Z,22.10
2023-02-06T02:32:06.151Z,23.00
2023-02-06T02:33:06.178Z,22.70
2023-02-06T02:34:06.130Z,23.90
2023-02-06T02:35:06.155Z,23.30
2023-02-06T02:36:06.116Z,22.70
2023-02-06T02:37:06.110Z,23.10
2023-02-06T02:38:06.080Z,23.50
2023-02-06T02:39:06.083Z,23.10
2023-02-06T02:40:07.910Z,23.00
2023-02-06T02:41:06.062Z,23.60
2023-02-06T02:42:06.062Z,23.40
2023-02-06T02:43:06.064Z,22.70
2023-02-06T02:44:06.020Z,22.90
2023-02-06T02:45:06.020Z,22.80
2023-02-06T02:46:06.023Z,23.40
2023-02-06T02:47:06.008Z,23.20
2023-02-06T02:48:05.993Z,21.50
2023-02-06T02:49:06.015Z,22.20
2023-02-06T02:50:05.961Z,23.50
2023-02-06T02:51:05.957Z,23.80
2023-02-06T02:52:05.953Z,24.00
2023-02-06T02:53:05.939Z,22.90
2023-02-06T02:54:06.066Z,23.60
2023-02-06T02:55:05.919Z,21.90
2023-02-06T02:56:05.892Z,23.00
2023-02-06T02:57:05.899Z,23.70
2023-02-06T02:58:05.867Z,23.90
2023-02-06T02:59:05.877Z,22.80
2023-02-06T03:00:05.842Z,21.90
2023-02-06T03:01:05.865Z,23.00
2023-02-06T03:02:05.857Z,23.90
2023-02-06T03:03:05.802Z,22.40
2023-02-06T03:04:05.791Z,22.70
2023-02-06T03:05:05.835Z,23.00
2023-02-06T03:06:05.772Z,23.10
2023-02-06T03:07:05.772Z,22.90
2023-02-06T03:08:05.757Z,22.60
2023-02-06T03:09:05.755Z,23.60
2023-02-06T03:10:05.783Z,23.40
2023-02-06T03:11:05.724Z,23.80
2023-02-06T03:12:05.741Z,22.60
2023-02-06T03:13:05.720Z,24.50
2023-02-06T03:14:05.695Z,24.50
2023-02-06T03:15:05.730Z,24.80
2023-02-06T03:16:05.735Z,25.00
2023-02-06T03:17:05.650Z,26.30
2023-02-06T03:18:05.650Z,26.40
2023-02-06T03:19:05.654Z,27.10
2023-02-06T03:20:05.652Z,27.70
2023-02-06T03:21:05.626Z,28.30
2023-02-06T03:22:05.611Z,27.50
2023-02-06T03:23:05.591Z,27.80
2023-02-06T03:24:05.585Z,27.80
2023-02-06T03:25:05.566Z,27.70
2023-02-06T03:26:05.580Z,29.40
2023-02-06T03:27:05.540Z,29.30
2023-02-06T03:28:05.651Z,28.70
2023-02-06T03:29:05.540Z,29.40
2023-02-06T03:30:05.504Z,30.00
2023-02-06T03:31:05.504Z,29.50
2023-02-06T03:32:05.505Z,28.10
2023-02-06T03:33:05.500Z,29.50
2023-02-06T03:34:05.543Z,29.30
2023-02-06T03:35:05.465Z,28.10
2023-02-06T03:36:05.447Z,28.60
2023-02-06T03:37:05.443Z,30.20
2023-02-06T03:38:05.585Z,29.50
2023-02-06T03:39:05.414Z,28.00
2023-02-06T03:40:05.389Z,30.90
2023-02-06T03:41:05.410Z,29.50
2023-02-06T03:42:05.384Z,28.70
2023-02-06T03:43:05.374Z,28.40
2023-02-06T03:44:05.353Z,28.50
2023-02-06T03:45:05.348Z,28.30
2023-02-06T03:46:05.407Z,29.60
2023-02-06T03:47:05.319Z,28.30
2023-02-06T03:48:05.342Z,27.60
2023-02-06T03:49:05.323Z,30.20
2023-02-06T03:50:05.302Z,27.40
2023-02-06T03:51:05.318Z,28.00
2023-02-06T03:52:05.274Z,28.40
2023-02-06T03:53:05.288Z,28.30
2023-02-06T03:54:05.255Z,27.20
2023-02-06T03:55:05.244Z,26.70
2023-02-06T03:56:05.232Z,28.30
2023-02-06T03:57:05.224Z,27.90
2023-02-06T03:58:05.193Z,27.30
2023-02-06T03:59:05.213Z,25.90
2023-02-06T04:00:05.196Z,27.70
2023-02-06T04:01:05.255Z,27.80
2023-02-06T04:02:05.187Z,26.90
2023-02-06T04:03:05.151Z,26.90
2023-02-06T04:04:05.229Z,26.90
2023-02-06T04:05:05.140Z,25.20
2023-02-06T04:06:05.128Z,25.40
2023-02-06T04:07:05.128Z,26.00
2023-02-06T04:08:05.100Z,27.20
2023-02-06T04:09:05.083Z,25.50
2023-02-06T04:10:05.095Z,26.50
2023-02-06T04:11:05.067Z,26.40
2023-02-06T04:12:05.054Z,25.90
2023-02-06T04:13:05.053Z,25.50
2023-02-06T04:14:05.087Z,26.10
2023-02-06T04:15:05.035Z,27.40
2023-02-06T04:16:05.030Z,26.30
2023-02-06T04:17:05.038Z,26.30
2023-02-06T04:18:06.135Z,25.30
2023-02-06T04:19:04.990Z,27.10
2023-02-06T04:20:04.970Z,25.80
2023-02-06T04:21:04.951Z,27.50
2023-02-06T04:22:04.952Z,27.00
2023-02-06T04:23:05.081Z,27.00
2023-02-06T04:24:04.936Z,25.90
2023-02-06T04:25:04.911Z,26.20
2023-02-06T04:26:04.925Z,26.90
2023-02-06T04:27:04.924Z,26.30
2023-02-06T04:28:04.920Z,25.90
2023-02-06T04:29:04.850Z,26.70
2023-02-06T04:30:04.866Z,26.80
2023-02-06T04:31:04.961Z,26.70
2023-02-06T04:32:04.845Z,25.70
2023-02-06T04:33:04.833Z,26.10
2023-02-06T04:34:04.818Z,25.90
2023-02-06T04:35:04.808Z,24.90
2023-02-06T04:36:04.799Z,25.40
2023-02-06T04:37:04.843Z,26.70
2023-02-06T04:38:04.748Z,26.40
2023-02-06T04:39:04.739Z,26.30
2023-02-06T04:40:04.784Z,26.90
2023-02-06T04:41:04.732Z,24.80
2023-02-06T04:42:04.708Z,26.00
2023-02-06T04:43:04.741Z,25.00
2023-02-06T04:44:04.701Z,25.20
2023-02-06T04:45:04.699Z,26.80
2023-02-06T04:46:04.789Z,26.10
2023-02-06T04:47:04.658Z,25.90
2023-02-06T04:48:04.674Z,25.80
2023-02-06T04:49:04.779Z,26.20
2023-02-06T04:50:04.688Z,27.40
2023-02-06T04:51:04.640Z,26.70
2023-02-06T04:52:04.609Z,25.60
2023-02-06T04:53:04.629Z,26.30
2023-02-06T04:54:04.600Z,26.90
2023-02-06T04:55:04.580Z,25.80
2023-02-06T04:56:04.550Z,24.30
2023-02-06T04:57:04.568Z,26.80
2023-02-06T04:58:04.538Z,26.00
2023-02-06T04:59:04.559Z,25.60
2023-02-06T05:00:05.036Z,27.20
2023-02-06T05:01:04.507Z,27.60
2023-02-06T05:02:04.604Z,26.70
2023-02-06T05:03:04.516Z,27.30
2023-02-06T05:04:04.468Z,27.40
2023-02-06T05:05:04.489Z,26.70
2023-02-06T05:06:04.456Z,26.70
2023-02-06T05:07:05.621Z,26.30
2023-02-06T05:08:04.411Z,27.30
2023-02-06T05:09:04.413Z,26.10
2023-02-06T05:10:04.415Z,26.40
2023-02-06T05:11:04.418Z,26.30
2023-02-06T05:12:04.377Z,26.10
2023-02-06T05:13:04.383Z,26.80
2023-02-06T05:14:04.394Z,25.50
2023-02-06T05:15:04.362Z,25.30
2023-02-06T05:16:04.433Z,24.20
2023-02-06T05:17:04.354Z,25.00
2023-02-06T05:18:04.328Z,23.70
2023-02-06T05:19:04.310Z,25.60
2023-02-06T05:20:04.300Z,25.60
2023-02-06T05:21:04.275Z,23.80
2023-02-06T05:22:04.265Z,23.50
2023-02-06T05:23:04.255Z,24.70
2023-02-06T05:24:04.237Z,23.80
2023-02-06T05:25:04.234Z,24.30
2023-02-06T05:26:04.270Z,23.60
2023-02-06T05:27:04.209Z,24.10
2023-02-06T05:28:04.265Z,24.50
2023-02-06T05:29:04.214Z,23.70
2023-02-06T05:30:04.186Z,23.80
2023-02-06T05:31:04.333Z,23.40
2023-02-06T05:32:04.148Z,24.70
2023-02-06T05:33:04.134Z,23.40
2023-02-06T05:34:04.161Z,23.00
2023-02-06T05:35:04.150Z,24.70
2023-02-06T05:36:04.122Z,23.30
2023-02-06T05:37:04.130Z,23.00
2023-02-06T05:38:04.129Z,23.30
2023-02-06T05:39:04.099Z,24.00
2023-02-06T05:40:04.094Z,24.10
2023-02-06T05:41:04.057Z,23.90
2023-02-06T05:42:04.064Z,23.60
2023-02-06T05:43:04.028Z,22.60
2023-02-06T05:44:04.056Z,24.00
2023-02-06T05:45:04.019Z,24.40
2023-02-06T05:46:04.032Z,23.00
2023-02-06T05:47:03.997Z,23.40
2023-02-06T05:48:04.010Z,23.70
2023-02-06T05:49:03.956Z,22.40
2023-02-06T05:50:03.983Z,23.40
2023-02-06T05:51:03.948Z,23.10
2023-02-06T05:52:03.966Z,24.90
2023-02-06T05:53:03.921Z,24.30
2023-02-06T05:54:03.930Z,23.30
2023-02-06T05:55:04.217Z,23.90
2023-02-06T05:56:04.536Z,24.60
2023-02-06T05:57:03.868Z,22.50
2023-02-06T05:58:06.108Z,22.70
2023-02-06T05:59:03.889Z,24.10
2023-02-06T06:00:03.853Z,23.30
2023-02-06T06:01:03.836Z,23.10
2023-02-06T06:02:03.872Z,23.10
2023-02-06T06:03:03.808Z,23.70
2023-02-06T06:04:03.840Z,22.70
2023-02-06T06:05:03.872Z,23.70
2023-02-06T06:06:03.830Z,23.30
2023-02-06T06:07:03.784Z,23.30
2023-02-06T06:08:03.760Z,23.40
2023-02-06T06:09:03.766Z,25.00
2023-02-06T06:10:03.749Z,24.50
2023-02-06T06:11:03.729Z,24.10
2023-02-06T06:12:03.729Z,22.90
2023-02-06T06:13:03.726Z,23.30
2023-02-06T06:14:03.699Z,23.70
2023-02-06T06:15:03.707Z,22.70
2023-02-06T06:16:03.769Z,23.00
2023-02-06T06:17:03.688Z,23.40
2023-02-06T06:18:03.642Z,22.90
2023-02-06T06:19:03.642Z,23.90
2023-02-06T06:20:03.644Z,22.80
2023-02-06T06:21:03.679Z,23.50
2023-02-06T06:22:03.599Z,24.50
2023-02-06T06:23:03.589Z,23.70
2023-02-06T06:24:03.593Z,22.80
2023-02-06T06:25:03.575Z,23.50
2023-02-06T06:26:03.559Z,27.20
2023-02-06T06:27:03.591Z,25.50
2023-02-06T06:28:03.636Z,25.10
2023-02-06T06:29:03.530Z,24.80
2023-02-06T06:30:03.533Z,24.80
2023-02-06T06:31:03.673Z,24.80
2023-02-06T06:32:03.492Z,24.60
2023-02-06T06:33:03.481Z,25.70
2023-02-06T06:34:03.486Z,25.40
2023-02-06T06:35:03.479Z,24.30
2023-02-06T06:36:03.460Z,24.60
2023-02-06T06:37:03.451Z,26.20
2023-02-06T06:38:03.446Z,25.60
2023-02-06T06:39:03.415Z,24.60
2023-02-06T06:40:03.520Z,25.00
2023-02-06T06:41:03.420Z,26.20
2023-02-06T06:42:03.408Z,24.20
2023-02-06T06:43:03.389Z,25.10
2023-02-06T06:44:03.384Z,24.90
2023-02-06T06:45:03.344Z,25.00
2023-02-06T06:46:03.343Z,25.30
2023-02-06T06:47:03.332Z,25.00
2023-02-06T06:48:03.330Z,25.80
2023-02-06T06:49:03.329Z,24.00
2023-02-06T06:50:03.339Z,25.30
2023-02-06T06:51:03.298Z,24.90
2023-02-06T06:52:04.490Z,25.60
2023-02-06T06:53:03.273Z,24.60
2023-02-06T06:54:03.248Z,24.00
2023-02-06T06:55:03.276Z,25.50
2023-02-06T06:56:03.228Z,24.90
2023-02-06T06:57:03.224Z,25.00
2023-02-06T06:58:03.209Z,24.80
2023-02-06T06:59:03.202Z,24.80
2023-02-06T07:00:03.209Z,25.20
2023-02-06T07:01:03.305Z,25.50
2023-02-06T07:02:03.168Z,24.50
2023-02-06T07:03:03.164Z,23.60
2023-02-06T07:04:03.156Z,24.90
2023-02-06T07:05:03.113Z,25.20
2023-02-06T07:06:03.127Z,23.70
2023-02-06T07:07:03.229Z,24.70
2023-02-06T07:08:03.097Z,25.00
2023-02-06T07:09:03.087Z,24.70
2023-02-06T07:10:03.107Z,24.80
2023-02-06T07:11:03.105Z,23.90
2023-02-06T07:12:03.044Z,24.90
2023-02-06T07:13:03.049Z,23.70
2023-02-06T07:14:03.058Z,24.00
2023-02-06T07:15:03.021Z,25.20
2023-02-06T07:16:03.032Z,23.70
2023-02-06T07:17:03.024Z,23.90
2023-02-06T07:18:02.982Z,25.20
2023-02-06T07:19:02.975Z,25.40
2023-02-06T07:20:02.962Z,24.80
2023-02-06T07:21:02.975Z,25.90
2023-02-06T07:22:02.949Z,25.30
2023-02-06T07:23:02.968Z,25.00
2023-02-06T07:24:02.927Z,24.50
2023-02-06T07:25:02.897Z,25.20
2023-02-06T07:26:02.902Z,25.20
2023-02-06T07:27:02.925Z,23.90
2023-02-06T07:28:02.957Z,23.90
2023-02-06T07:29:02.856Z,25.40
2023-02-06T07:30:04.956Z,25.20
2023-02-06T07:31:02.862Z,24.70
2023-02-06T07:32:02.844Z,25.70
2023-02-06T07:33:02.804Z,26.20
2023-02-06T07:34:02.807Z,24.70
2023-02-06T07:35:02.792Z,25.60
2023-02-06T07:36:04.112Z,26.20
2023-02-06T07:37:02.763Z,25.00
2023-02-06T07:38:02.787Z,24.90
2023-02-06T07:39:02.743Z,24.90
2023-02-06T07:40:02.770Z,25.40
2023-02-06T07:41:02.808Z,24.10
2023-02-06T07:42:02.723Z,24.50
2023-02-06T07:43:02.710Z,24.40
2023-02-06T07:44:02.699Z,25.20
2023-02-06T07:45:02.716Z,23.10
2023-02-06T07:46:02.751Z,23.70
2023-02-06T07:47:02.674Z,25.30
2023-02-06T07:48:02.661Z,24.50
2023-02-06T07:49:02.659Z,23.70
2023-02-06T07:50:02.653Z,23.70
2023-02-06T07:51:02.609Z,24.50
2023-02-06T07:52:02.614Z,23.40
2023-02-06T07:53:02.631Z,24.20
2023-02-06T07:54:02.569Z,25.20
2023-02-06T07:55:02.607Z,24.30
2023-02-06T07:56:02.564Z,22.90
2023-02-06T07:57:02.545Z,24.10
2023-02-06T07:58:02.570Z,24.10
2023-02-06T07:59:02.511Z,23.20
2023-02-06T08:00:02.508Z,23.10
2023-02-06T08:01:02.493Z,23.70
2023-02-06T08:02:02.490Z,23.70
2023-02-06T08:03:02.510Z,22.00
2023-02-06T08:04:02.518Z,22.90
2023-02-06T08:05:02.473Z,23.40
2023-02-06T08:06:02.464Z,22.50
2023-02-06T08:07:02.685Z,21.90
2023-02-06T08:08:02.419Z,22.60
2023-02-06T08:09:02.399Z,22.40
2023-02-06T08:10:02.404Z,22.00
2023-02-06T08:11:02.413Z,22.80
2023-02-06T08:12:02.408Z,23.20
2023-02-06T08:13:02.372Z,21.70
2023-02-06T08:14:02.399Z,22.30
2023-02-06T08:15:02.325Z,22.50
2023-02-06T08:16:02.358Z,22.00
2023-02-06T08:17:02.422Z,22.50
2023-02-06T08:18:02.523Z,22.70
2023-02-06T08:19:02.298Z,23.40
2023-02-06T08:20:02.292Z,21.90
2023-02-06T08:21:02.288Z,23.20
2023-02-06T08:22:02.287Z,22.90
2023-02-06T08:23:02.489Z,23.20
2023-02-06T08:24:02.247Z,22.70
2023-02-06T08:25:02.240Z,23.20
2023-02-06T08:26:02.291Z,23.50
2023-02-06T08:27:02.230Z,21.60
2023-02-06T08:28:02.363Z,23.20
2023-02-06T08:29:02.221Z,23.20
2023-02-06T08:30:03.127Z,23.80
2023-02-06T08:31:02.264Z,22.60
2023-02-06T08:32:02.175Z,24.60
2023-02-06T08:33:02.171Z,23.60
2023-02-06T08:34:02.126Z,22.90
2023-02-06T08:35:02.130Z,22.70
2023-02-06T08:36:02.169Z,23.50
2023-02-06T08:37:02.173Z,22.60
2023-02-06T08:38:02.113Z,23.40
2023-02-06T08:39:02.104Z,23.20
2023-02-06T08:40:02.077Z,23.40
2023-02-06T08:41:02.053Z,22.50
2023-02-06T08:42:02.059Z,23.40
2023-02-06T08:43:02.156Z,23.90
2023-02-06T08:44:02.033Z,22.20
2023-02-06T08:45:02.039Z,22.50
2023-02-06T08:46:02.039Z,22.60
2023-02-06T08:47:10.162Z,22.90
2023-02-06T08:48:03.131Z,23.00
2023-02-06T08:49:02.030Z,23.40
2023-02-06T08:50:03.753Z,23.30
2023-02-06T08:51:02.006Z,23.50
2023-02-06T08:52:01.947Z,23.20
2023-02-06T08:53:01.998Z,22.80
2023-02-06T08:54:01.903Z,23.30
2023-02-06T08:55:01.902Z,24.20
2023-02-06T08:56:01.914Z,22.90
2023-02-06T08:57:02.303Z,23.30
2023-02-06T08:58:01.863Z,23.70
2023-02-06T08:59:01.846Z,23.80
2023-02-06T09:00:01.874Z,22.80
2023-02-06T09:01:01.925Z,22.60
2023-02-06T09:02:01.867Z,23.60
2023-02-06T09:03:01.803Z,23.10
2023-02-06T09:04:01.817Z,22.40
2023-02-06T09:05:01.811Z,23.10
2023-02-06T09:06:09.717Z,22.70
2023-02-06T09:07:02.779Z,22.10
2023-02-06T09:08:01.766Z,22.50
2023-02-06T09:09:01.748Z,23.70
2023-02-06T09:10:01.742Z,23.20
2023-02-06T09:11:02.156Z,21.70
2023-02-06T09:12:01.726Z,22.60
2023-02-06T09:13:01.700Z,23.20
2023-02-06T09:14:01.693Z,22.90
2023-02-06T09:15:01.689Z,21.70
2023-02-06T09:16:01.725Z,23.00
2023-02-06T09:17:01.860Z,22.70
2023-02-06T09:18:01.672Z,21.90
2023-02-06T09:19:01.661Z,22.10
2023-02-06T09:20:01.650Z,22.60
2023-02-06T09:21:01.647Z,22.10
2023-02-06T09:22:01.612Z,22.70
2023-02-06T09:23:01.598Z,22.30
2023-02-06T09:24:01.586Z,23.60
2023-02-06T09:25:01.604Z,22.50
2023-02-06T09:26:01.566Z,22.50
2023-02-06T09:27:01.564Z,23.10
2023-02-06T09:28:02.182Z,23.10
2023-02-06T09:29:01.515Z,22.90
2023-02-06T09:30:01.508Z,24.10
2023-02-06T09:31:01.550Z,25.00
2023-02-06T09:32:01.498Z,23.90
2023-02-06T09:33:01.514Z,22.70
2023-02-06T09:34:01.485Z,22.00
2023-02-06T09:35:01.650Z,23.10
2023-02-06T09:36:01.432Z,21.80
2023-02-06T09:37:01.453Z,22.70
2023-02-06T09:38:01.452Z,23.70
2023-02-06T09:39:01.412Z,23.40
2023-02-06T09:40:01.416Z,23.80
2023-02-06T09:41:01.413Z,23.80
2023-02-06T09:42:01.377Z,23.10
2023-02-06T09:43:01.393Z,21.50
2023-02-06T09:44:01.357Z,23.30
2023-02-06T09:45:01.372Z,24.00
2023-02-06T09:46:01.388Z,22.90
2023-02-06T09:47:01.338Z,22.00
2023-02-06T09:48:01.353Z,23.40
2023-02-06T09:49:01.326Z,22.60
2023-02-06T09:50:01.326Z,22.40
2023-02-06T09:51:01.323Z,21.70
2023-02-06T09:52:01.264Z,23.00
2023-02-06T09:53:01.278Z,22.70
2023-02-06T09:54:01.347Z,21.80
2023-02-06T09:55:02.228Z,21.70
2023-02-06T09:56:02.119Z,21.80
2023-02-06T09:57:02.326Z,20.00
2023-02-06T09:58:01.581Z,19.70
2023-02-06T09:59:01.515Z,20.30
2023-02-06T10:00:04.986Z,20.30
2023-02-06T10:01:01.641Z,20.30
2023-02-06T10:02:01.571Z,19.80
2023-02-06T10:03:01.740Z,19.90
2023-02-06T10:04:01.605Z,20.30
2023-02-06T10:05:01.740Z,19.90
2023-02-06T10:06:01.136Z,21.20
2023-02-06T10:07:01.116Z,21.40
2023-02-06T10:08:01.100Z,20.60
2023-02-06T10:09:01.084Z,20.50
2023-02-06T10:10:01.103Z,21.40
2023-02-06T10:11:01.064Z,21.50
2023-02-06T10:12:01.035Z,20.70
2023-02-06T10:13:01.042Z,21.20
2023-02-06T10:14:01.056Z,22.10
2023-02-06T10:15:01.011Z,20.70
2023-02-06T10:16:01.164Z,20.50
2023-02-06T10:17:01.074Z,21.30
2023-02-06T10:18:00.996Z,21.40
2023-02-06T10:19:00.964Z,20.80
2023-02-06T10:20:00.962Z,20.50
2023-02-06T10:21:00.951Z,20.30
2023-02-06T10:22:00.952Z,19.20
2023-02-06T10:23:00.943Z,19.20
2023-02-06T10:24:00.948Z,19.60
2023-02-06T10:25:01.017Z,20.20
2023-02-06T10:26:00.894Z,17.60
2023-02-06T10:27:00.884Z,17.00
2023-02-06T10:28:00.941Z,18.20
2023-02-06T10:29:00.851Z,18.10
2023-02-06T10:30:00.874Z,16.90
2023-02-06T10:31:00.957Z,18.30
2023-02-06T10:32:00.859Z,17.70
2023-02-06T10:33:00.859Z,18.00
2023-02-06T10:34:00.828Z,17.30
2023-02-06T10:35:00.818Z,17.10
2023-02-06T10:36:00.824Z,16.70
2023-02-06T10:37:00.794Z,16.70
2023-02-06T10:38:00.776Z,14.50
2023-02-06T10:39:00.765Z,13.00
2023-02-06T10:40:00.776Z,13.20
2023-02-06T10:41:00.731Z,11.50
2023-02-06T10:42:00.781Z,12.00
2023-02-06T10:43:00.751Z,12.60
2023-02-06T10:44:00.701Z,13.10
2023-02-06T10:45:17.028Z,12.00
2023-02-06T10:46:01.668Z,13.40
2023-02-06T10:47:00.739Z,13.30
2023-02-06T10:48:00.673Z,12.40
2023-02-06T10:49:00.687Z,12.70
2023-02-06T10:50:00.673Z,12.90
2023-02-06T10:51:00.627Z,13.60
2023-02-06T10:52:00.604Z,12.20
2023-02-06T10:53:00.656Z,12.30
2023-02-06T10:54:00.585Z,12.40
2023-02-06T10:55:00.574Z,12.30
2023-02-06T10:56:00.571Z,12.00
2023-02-06T10:57:00.550Z,12.20
2023-02-06T10:58:00.533Z,12.40
2023-02-06T10:59:00.576Z,12.70
2023-02-06T11:00:00.538Z,12.10
2023-02-06T11:01:00.601Z,12.20
2023-02-06T11:02:00.784Z,12.70
2023-02-06T11:03:07.556Z,12.30
2023-02-06T11:04:01.554Z,11.90
2023-02-06T11:05:00.482Z,12.20
2023-02-06T11:06:00.490Z,13.40
2023-02-06T11:07:00.456Z,11.90
2023-02-06T11:08:00.436Z,11.50
2023-02-06T11:09:00.482Z,12.30
2023-02-06T11:10:00.415Z,12.40
2023-02-06T11:11:00.430Z,12.40
2023-02-06T11:12:00.389Z,12.80
2023-02-06T11:13:00.394Z,13.80
2023-02-06T11:14:00.385Z,13.50
2023-02-06T11:15:00.384Z,13.50
2023-02-06T11:16:00.385Z,14.40
2023-02-06T11:17:00.355Z,15.80
2023-02-06T11:18:00.323Z,14.60
2023-02-06T11:19:00.371Z,15.00
2023-02-06T11:20:00.294Z,15.60
2023-02-06T11:21:00.293Z,16.90
2023-02-06T11:22:00.315Z,16.70
2023-02-06T11:23:00.302Z,18.50
2023-02-06T11:24:00.253Z,19.90
2023-02-06T11:25:00.310Z,20.80
2023-02-06T11:26:00.230Z,19.80
2023-02-06T11:27:00.244Z,21.70
2023-02-06T11:28:00.263Z,23.10
2023-02-06T11:29:00.191Z,23.80
2023-02-06T11:30:00.239Z,21.50
2023-02-06T11:31:00.315Z,21.70
2023-02-06T11:32:00.196Z,22.30
2023-02-06T11:33:04.741Z,24.90
2023-02-06T11:34:00.150Z,22.50
2023-02-06T11:35:00.293Z,21.90
2023-02-06T11:36:00.119Z,23.00
2023-02-06T11:37:00.818Z,22.80
2023-02-06T11:38:00.134Z,21.30
2023-02-06T11:39:00.128Z,21.50
2023-02-06T11:40:00.113Z,22.80
2023-02-06T11:41:00.110Z,24.00
2023-02-06T11:42:00.308Z,23.40
2023-02-06T11:43:00.115Z,25.60
2023-02-06T11:44:00.044Z,27.80
2023-02-06T11:45:00.116Z,26.70
2023-02-06T11:46:00.075Z,27.00
2023-02-06T11:47:00.020Z,26.80
2023-02-06T11:48:00.002Z,27.00
2023-02-06T11:48:59.999Z,25.00
2023-02-06T11:50:00.216Z,26.80
2023-02-06T11:50:59.962Z,27.40
2023-02-06T11:52:00.248Z,27.30
2023-02-06T11:53:00.079Z,27.10
2023-02-06T11:53:59.944Z,23.70
2023-02-06T11:54:59.916Z,25.40
2023-02-06T11:55:59.929Z,24.90
2023-02-06T11:56:59.901Z,26.80
2023-02-06T11:57:59.920Z,27.20
2023-02-06T11:58:59.878Z,27.10
2023-02-06T11:59:59.889Z,26.10
2023-02-06T12:00:59.857Z,25.90
2023-02-06T12:01:59.859Z,26.10
2023-02-06T12:02:59.894Z,25.60
2023-02-06T12:03:59.875Z,24.30
2023-02-06T12:05:01.652Z,23.50
2023-02-06T12:06:02.643Z,22.80
2023-02-06T12:06:59.802Z,23.10
2023-02-06T12:07:59.812Z,22.00
2023-02-06T12:08:59.764Z,21.80
2023-02-06T12:09:59.760Z,21.90
2023-02-06T12:10:59.767Z,21.60
2023-02-06T12:11:59.752Z,20.20
2023-02-06T12:12:59.782Z,20.50
2023-02-06T12:13:59.707Z,21.50
2023-02-06T12:15:00.001Z,22.20
2023-02-06T12:15:59.687Z,21.30
2023-02-06T12:16:59.690Z,22.30
2023-02-06T12:17:59.681Z,21.40
2023-02-06T12:18:59.680Z,22.20
2023-02-06T12:19:59.658Z,20.80
2023-02-06T12:20:59.679Z,20.50
2023-02-06T12:21:59.646Z,21.40
2023-02-06T12:22:59.666Z,21.90
2023-02-06T12:23:59.594Z,20.50
2023-02-06T12:24:59.608Z,21.10
2023-02-06T12:25:59.581Z,20.90
2023-02-06T12:26:59.575Z,19.80
2023-02-06T12:27:59.594Z,19.60
2023-02-06T12:28:59.610Z,19.90
2023-02-06T12:29:59.552Z,19.60
2023-02-06T12:30:59.693Z,18.00
2023-02-06T12:31:59.631Z,17.20
2023-02-06T12:32:59.527Z,17.80
2023-02-06T12:33:59.574Z,18.30
2023-02-06T12:34:59.480Z,16.90
2023-02-06T12:35:59.478Z,18.00
2023-02-06T12:36:59.542Z,18.30
2023-02-06T12:37:59.438Z,18.50
2023-02-06T12:38:59.474Z,18.20
2023-02-06T12:39:59.437Z,18.00
2023-02-06T12:40:59.439Z,18.40
2023-02-06T12:41:59.410Z,18.80
2023-02-06T12:42:59.401Z,18.30
2023-02-06T12:43:59.431Z,18.40
2023-02-06T12:44:59.478Z,18.50
2023-02-06T12:45:59.434Z,18.80
2023-02-06T12:46:59.368Z,18.40
2023-02-06T12:47:59.326Z,18.30
2023-02-06T12:48:59.338Z,18.00
2023-02-06T12:49:59.323Z,18.70
2023-02-06T12:50:59.295Z,17.30
2023-02-06T12:51:59.317Z,17.20